createdAt,value
2022-11-21T00:02:00.236Z,2.13
2022-11-21T00:04:29.980Z,2.15
2022-11-21T00:06:59.652Z,2.15
2022-11-21T00:09:33.982Z,2.18
2022-11-21T00:12:03.603Z,2.21
2022-11-21T00:14:33.320Z,2.29
2022-11-21T00:17:02.974Z,2.32
2022-11-21T00:19:32.478Z,2.33
2022-11-21T00:22:02.064Z,2.38
2022-11-21T00:24:34.245Z,2.39
2022-11-21T00:27:04.073Z,2.41
2022-11-21T00:29:33.770Z,2.42
2022-11-21T00:32:03.344Z,2.43
2022-11-21T00:34:32.947Z,2.44
2022-11-21T00:37:02.718Z,2.45
2022-11-21T00:39:35.044Z,2.47
2022-11-21T00:42:04.528Z,2.47
2022-11-21T00:44:34.129Z,2.48
2022-11-21T00:47:03.743Z,2.51
2022-11-21T00:49:33.469Z,2.54
2022-11-21T00:52:03.174Z,2.48
2022-11-21T00:54:35.368Z,2.46
2022-11-21T00:57:04.948Z,2.46
2022-11-21T00:59:34.622Z,2.42
2022-11-21T01:02:05.506Z,2.39
2022-11-21T01:04:36.701Z,2.34
2022-11-21T01:07:06.303Z,2.33
2022-11-21T01:09:38.539Z,2.27
2022-11-21T01:12:08.637Z,2.25
2022-11-21T01:14:38.461Z,2.22
2022-11-21T01:17:07.985Z,2.18
2022-11-21T01:19:37.692Z,2.19
2022-11-21T01:22:07.378Z,2.13
2022-11-21T01:24:39.578Z,2.10
2022-11-21T01:27:09.174Z,2.10
2022-11-21T01:29:38.790Z,2.11
2022-11-21T01:32:08.371Z,2.18
2022-11-21T01:34:37.981Z,2.14
2022-11-21T01:37:07.516Z,2.15
2022-11-21T01:39:39.752Z,2.21
2022-11-21T01:42:09.285Z,2.16
2022-11-21T01:44:51.337Z,2.11
2022-11-21T01:47:22.604Z,2.06
2022-11-21T01:49:56.933Z,2.07
2022-11-21T01:52:28.821Z,2.05
2022-11-21T01:55:05.576Z,2.05
2022-11-21T01:57:38.765Z,2.04
2022-11-21T02:00:13.379Z,2.05
2022-11-21T02:02:46.402Z,2.05
2022-11-21T02:05:20.003Z,2.05
2022-11-21T02:07:52.267Z,2.07
2022-11-21T02:10:25.788Z,2.06
2022-11-21T02:12:57.068Z,2.06
2022-11-21T02:15:29.471Z,2.06
2022-11-21T02:17:59.324Z,2.04
2022-11-21T02:20:31.938Z,2.05
2022-11-21T02:23:06.488Z,2.07
2022-11-21T02:25:41.603Z,2.07
2022-11-21T02:28:14.097Z,2.06
2022-11-21T02:30:45.451Z,2.12
2022-11-21T02:33:16.145Z,2.10
2022-11-21T02:35:45.810Z,2.11
2022-11-21T02:38:20.927Z,2.10
2022-11-21T02:40:58.273Z,2.12
2022-11-21T02:43:31.482Z,2.14
2022-11-21T02:46:01.778Z,2.14
2022-11-21T02:48:31.344Z,2.09
2022-11-21T02:51:00.959Z,2.10
2022-11-21T02:53:30.779Z,2.09
2022-11-21T02:56:03.301Z,2.10
2022-11-21T02:58:33.309Z,2.11
2022-11-21T03:01:02.981Z,2.12
2022-11-21T03:03:32.660Z,2.13
2022-11-21T03:06:02.292Z,2.12
2022-11-21T03:08:32.081Z,2.13
2022-11-21T03:11:04.299Z,2.09
2022-11-21T03:13:33.878Z,2.09
2022-11-21T03:16:03.436Z,2.10
2022-11-21T03:18:33.456Z,2.12
2022-11-21T03:21:03.124Z,2.08
2022-11-21T03:23:32.643Z,2.02
2022-11-21T03:26:04.851Z,1.99
2022-11-21T03:28:34.440Z,1.98
2022-11-21T03:31:04.020Z,1.94
2022-11-21T03:33:33.691Z,1.92
2022-11-21T03:36:03.235Z,1.94
2022-11-21T03:38:32.848Z,1.92
2022-11-21T03:41:29.148Z,1.94
2022-11-21T03:43:59.449Z,1.97
2022-11-21T03:46:29.627Z,1.90
2022-11-21T03:48:59.580Z,1.87
2022-11-21T03:51:29.778Z,1.90
2022-11-21T03:53:59.519Z,1.89
2022-11-21T03:56:31.719Z,1.93
2022-11-21T03:59:01.560Z,1.89
2022-11-21T04:01:36.147Z,1.88
2022-11-21T04:04:06.457Z,1.86
2022-11-21T04:06:36.022Z,1.83
2022-11-21T04:09:05.896Z,1.75
2022-11-21T04:11:38.101Z,1.78
2022-11-21T04:14:07.924Z,1.69
2022-11-21T04:16:37.582Z,1.68
2022-11-21T04:19:07.248Z,1.71
2022-11-21T04:21:36.905Z,1.73
2022-11-21T04:24:07.271Z,1.60
2022-11-21T04:26:39.436Z,1.69
2022-11-21T04:29:09.224Z,1.59
2022-11-21T04:31:38.769Z,1.59
2022-11-21T04:34:08.284Z,1.68
2022-11-21T04:36:37.896Z,1.65
2022-11-21T04:39:07.602Z,1.66
2022-11-21T04:41:39.827Z,1.64
2022-11-21T04:44:09.475Z,1.58
2022-11-21T04:46:39.037Z,1.57
2022-11-21T04:49:08.608Z,1.51
2022-11-21T04:51:38.214Z,1.54
2022-11-21T04:54:08.212Z,1.57
2022-11-21T04:56:40.424Z,1.55
2022-11-21T04:59:12.084Z,1.54
2022-11-21T05:01:41.828Z,1.57
2022-11-21T05:04:11.513Z,1.54
2022-11-21T05:06:41.161Z,1.52
2022-11-21T05:09:10.939Z,1.49
2022-11-21T05:11:55.606Z,1.52
2022-11-21T05:14:26.544Z,1.51
2022-11-21T05:16:57.227Z,1.51
2022-11-21T05:19:26.829Z,1.55
2022-11-21T05:21:56.653Z,1.52
2022-11-21T05:24:26.863Z,1.52
2022-11-21T05:26:59.806Z,1.56
2022-11-21T05:29:29.705Z,1.57
2022-11-21T05:31:59.323Z,1.60
2022-11-21T05:34:29.286Z,1.58
2022-11-21T05:36:59.399Z,1.48
2022-11-21T05:39:29.973Z,1.46
2022-11-21T05:42:03.391Z,1.41
2022-11-21T05:44:31.226Z,1.39
2022-11-21T05:47:01.174Z,1.39
2022-11-21T05:49:31.034Z,1.43
2022-11-21T05:52:00.747Z,1.39
2022-11-21T05:54:31.893Z,1.42
2022-11-21T05:57:04.395Z,1.42
2022-11-21T05:59:34.237Z,1.42
2022-11-21T06:02:16.615Z,1.41
2022-11-21T06:04:46.265Z,1.41
2022-11-21T06:07:15.897Z,1.43
2022-11-21T06:09:45.525Z,1.43
2022-11-21T06:12:21.413Z,1.45
2022-11-21T06:14:53.753Z,1.46
2022-11-21T06:17:23.342Z,1.50
2022-11-21T06:19:53.020Z,1.53
2022-11-21T06:22:22.682Z,1.55
2022-11-21T06:24:52.859Z,1.59
2022-11-21T06:27:25.077Z,1.60
2022-11-21T06:29:54.672Z,1.62
2022-11-21T06:32:24.306Z,1.67
2022-11-21T06:34:53.943Z,1.69
2022-11-21T06:37:23.849Z,1.72
2022-11-21T06:39:53.550Z,1.77
2022-11-21T06:42:25.751Z,1.79
2022-11-21T06:44:55.591Z,1.82
2022-11-21T06:47:25.126Z,1.84
2022-11-21T06:49:54.694Z,1.93
2022-11-21T06:52:24.266Z,1.93
2022-11-21T06:54:53.926Z,1.88
2022-11-21T06:57:26.099Z,1.87
2022-11-21T06:59:55.656Z,1.86
2022-11-21T07:02:25.227Z,1.87
2022-11-21T07:04:54.865Z,1.87
2022-11-21T07:07:24.447Z,1.87
2022-11-21T07:09:54.059Z,1.91
2022-11-21T07:12:38.667Z,1.94
2022-11-21T07:15:09.235Z,1.94
2022-11-21T07:17:38.861Z,1.92
2022-11-21T07:20:09.982Z,1.91
2022-11-21T07:22:39.510Z,1.92
2022-11-21T07:25:09.923Z,1.91
2022-11-21T07:27:42.055Z,1.94
2022-11-21T07:30:13.192Z,1.90
2022-11-21T07:32:42.856Z,1.90
2022-11-21T07:35:12.868Z,1.91
2022-11-21T07:37:42.983Z,1.92
2022-11-21T07:40:13.256Z,1.91
2022-11-21T07:42:45.549Z,1.93
2022-11-21T07:45:16.345Z,1.89
2022-11-21T07:47:45.970Z,1.91
2022-11-21T07:50:16.232Z,1.90
2022-11-21T07:52:45.856Z,1.88
2022-11-21T07:55:15.424Z,1.85
2022-11-21T07:57:47.586Z,1.84
2022-11-21T08:00:18.975Z,1.82
2022-11-21T08:02:48.604Z,1.82
2022-11-21T08:05:18.225Z,1.83
2022-11-21T08:07:47.875Z,1.82
2022-11-21T08:10:18.553Z,1.84
2022-11-21T08:12:50.815Z,1.85
2022-11-21T08:15:20.522Z,1.86
2022-11-21T08:17:50.135Z,1.88
2022-11-21T08:20:19.990Z,1.89
2022-11-21T08:22:49.639Z,1.90
2022-11-21T08:25:19.378Z,1.93
2022-11-21T08:27:51.507Z,1.96
2022-11-21T08:30:21.268Z,1.96
2022-11-21T08:32:50.784Z,1.99
2022-11-21T08:35:20.808Z,2.05
2022-11-21T08:37:50.450Z,2.18
2022-11-21T08:40:20.367Z,2.21
2022-11-21T08:42:59.300Z,2.26
2022-11-21T08:45:28.964Z,2.29
2022-11-21T08:47:59.095Z,2.39
2022-11-21T08:50:29.832Z,2.49
2022-11-21T08:53:03.396Z,2.61
2022-11-21T08:55:33.926Z,2.70
2022-11-21T08:58:06.143Z,2.78
2022-11-21T09:00:35.697Z,3.08
2022-11-21T09:03:07.570Z,3.25
2022-11-21T09:05:37.195Z,3.30
2022-11-21T09:08:07.070Z,3.50
2022-11-21T09:10:36.625Z,3.53
2022-11-21T09:13:08.733Z,3.73
2022-11-21T09:15:50.776Z,3.77
2022-11-21T09:18:40.093Z,4.09
2022-11-21T09:21:12.547Z,4.19
2022-11-21T09:23:58.564Z,4.20
2022-11-21T09:26:31.196Z,4.48
2022-11-21T09:29:16.793Z,4.54
2022-11-21T09:32:02.031Z,4.62
2022-11-21T09:34:31.898Z,4.70
2022-11-21T09:40:13.980Z,4.82
2022-11-21T09:43:18.786Z,4.92
2022-11-21T09:46:22.437Z,5.00
2022-11-21T09:48:58.403Z,5.15
2022-11-21T09:51:30.857Z,5.23
2022-11-21T09:54:04.719Z,5.34
2022-11-21T09:56:39.967Z,5.36
2022-11-21T09:59:21.956Z,5.41
2022-11-21T10:01:54.479Z,5.42
2022-11-21T10:04:24.292Z,5.46
2022-11-21T10:07:04.080Z,5.51
2022-11-21T10:09:49.224Z,5.56
2022-11-21T10:12:40.714Z,5.62
2022-11-21T10:15:25.012Z,5.66
2022-11-21T10:18:38.937Z,5.75
2022-11-21T10:21:48.849Z,5.84
2022-11-21T10:24:46.348Z,5.87
2022-11-21T10:27:44.391Z,5.86
2022-11-21T10:30:17.666Z,5.90
2022-11-21T10:32:54.833Z,5.99
2022-11-21T10:35:46.875Z,6.02
2022-11-21T10:38:27.342Z,5.99
2022-11-21T10:41:27.489Z,5.97
2022-11-21T10:44:20.455Z,6.02
2022-11-21T10:47:02.758Z,6.09
2022-11-21T10:49:37.537Z,6.09
2022-11-21T10:52:15.941Z,6.13
2022-11-21T10:55:16.623Z,6.20
2022-11-21T10:57:52.527Z,6.27
2022-11-21T11:00:31.226Z,6.31
2022-11-21T11:03:18.792Z,6.32
2022-11-21T11:06:22.180Z,6.51
2022-11-21T11:11:54.068Z,6.74
2022-11-21T11:14:33.952Z,6.81
2022-11-21T11:17:03.976Z,6.82
2022-11-21T11:19:39.980Z,7.00
2022-11-21T11:22:31.032Z,7.08
2022-11-21T11:25:06.556Z,7.00
2022-11-21T11:27:36.089Z,7.09
2022-11-21T11:30:10.475Z,7.07
2022-11-21T11:32:43.606Z,7.14
2022-11-21T11:35:24.949Z,7.03
2022-11-21T11:38:04.114Z,7.00
2022-11-21T11:40:41.052Z,6.99
2022-11-21T11:43:55.739Z,7.08
2022-11-21T11:46:52.718Z,7.14
2022-11-21T11:49:54.223Z,7.09
2022-11-21T11:52:28.143Z,7.09
2022-11-21T11:55:04.835Z,7.10
2022-11-21T11:57:40.094Z,7.08
2022-11-21T12:00:25.110Z,6.97
2022-11-21T12:03:01.509Z,6.92
2022-11-21T12:05:33.696Z,6.87
2022-11-21T12:11:25.413Z,6.86
2022-11-21T12:13:59.958Z,6.88
2022-11-21T12:16:30.021Z,6.89
2022-11-21T12:19:05.289Z,6.87
2022-11-21T12:21:34.910Z,6.85
2022-11-21T12:24:06.271Z,6.86
2022-11-21T12:26:52.808Z,6.88
2022-11-21T12:29:42.804Z,6.91
2022-11-21T12:32:27.637Z,6.89
2022-11-21T12:35:26.013Z,6.91
2022-11-21T12:38:06.204Z,6.87
2022-11-21T12:40:46.389Z,6.88
2022-11-21T12:43:25.117Z,6.92
2022-11-21T12:46:05.600Z,7.00
2022-11-21T12:48:57.861Z,7.03
2022-11-21T12:51:57.147Z,7.04
2022-11-21T12:54:43.839Z,6.98
2022-11-21T12:57:15.624Z,6.95
2022-11-21T13:00:00.002Z,6.99
2022-11-21T13:02:52.314Z,7.00
2022-11-21T13:05:30.933Z,7.07
2022-11-21T13:08:05.726Z,7.05
2022-11-21T13:10:35.975Z,7.10
2022-11-21T13:13:17.359Z,7.10
2022-11-21T13:15:55.896Z,7.15
2022-11-21T13:18:33.784Z,7.08
2022-11-21T13:21:03.412Z,7.11
2022-11-21T13:23:40.647Z,7.12
2022-11-21T13:26:48.455Z,7.11
2022-11-21T13:29:21.104Z,7.05
2022-11-21T13:31:50.860Z,7.03
2022-11-21T13:34:39.213Z,7.11
2022-11-21T13:37:08.972Z,7.04
2022-11-21T13:39:40.302Z,7.04
2022-11-21T13:42:29.296Z,6.99
2022-11-21T13:44:58.898Z,6.94
2022-11-21T13:48:10.998Z,6.92
2022-11-21T13:51:19.442Z,6.92
2022-11-21T13:54:09.182Z,6.95
2022-11-21T13:56:47.136Z,6.98
2022-11-21T13:59:33.591Z,6.94
2022-11-21T14:02:20.928Z,6.90
2022-11-21T14:05:09.792Z,6.85
2022-11-21T14:07:44.117Z,6.85
2022-11-21T14:10:33.776Z,6.86
2022-11-21T14:13:05.940Z,6.91
2022-11-21T14:15:41.509Z,6.85
2022-11-21T14:18:22.930Z,6.85
2022-11-21T14:20:56.954Z,6.82
2022-11-21T14:23:31.994Z,6.78
2022-11-21T14:26:04.800Z,6.75
2022-11-21T14:28:36.315Z,6.74
2022-11-21T14:31:07.310Z,6.75
2022-11-21T14:33:38.279Z,6.75
2022-11-21T14:36:11.592Z,6.70
2022-11-21T14:39:02.259Z,6.64
2022-11-21T14:41:39.827Z,6.64
2022-11-21T14:44:22.008Z,6.65
2022-11-21T14:46:52.921Z,6.64
2022-11-21T14:49:31.298Z,6.67
2022-11-21T14:52:05.464Z,6.64
2022-11-21T14:55:00.285Z,6.68
2022-11-21T14:57:39.030Z,6.67
2022-11-21T15:00:24.634Z,6.61
2022-11-21T15:03:01.712Z,6.60
2022-11-21T15:11:20.673Z,6.57
2022-11-21T15:16:43.696Z,6.55
2022-11-21T15:19:13.887Z,6.47
2022-11-21T15:21:47.748Z,6.50
2022-11-21T15:24:31.062Z,6.56
2022-11-21T15:27:03.711Z,6.55
2022-11-21T15:29:34.148Z,6.51
2022-11-21T15:32:15.801Z,6.41
2022-11-21T15:34:47.323Z,6.38
2022-11-21T15:37:19.505Z,6.38
2022-11-21T15:39:53.136Z,6.47
2022-11-21T15:42:39.059Z,6.42
2022-11-21T15:45:26.239Z,6.38
2022-11-21T15:47:56.878Z,6.43
2022-11-21T15:50:27.377Z,6.44
2022-11-21T15:52:56.878Z,6.42
2022-11-21T15:55:29.823Z,6.50
2022-11-21T15:58:02.001Z,6.47
2022-11-21T16:00:31.556Z,6.48
2022-11-21T16:03:01.349Z,6.46
2022-11-21T16:05:31.311Z,6.44
2022-11-21T16:08:01.159Z,6.40
2022-11-21T16:10:31.147Z,6.43
2022-11-21T16:13:03.557Z,6.43
2022-11-21T16:15:33.325Z,6.46
2022-11-21T16:18:03.162Z,6.45
2022-11-21T16:20:32.832Z,6.53
2022-11-21T16:23:02.341Z,6.42
2022-11-21T16:25:31.926Z,6.46
2022-11-21T16:28:07.154Z,6.42
2022-11-21T16:30:37.275Z,6.44
2022-11-21T16:33:07.003Z,6.44
2022-11-21T16:35:36.592Z,6.38
2022-11-21T16:38:06.600Z,6.33
2022-11-21T16:40:36.320Z,6.31
2022-11-21T16:43:14.487Z,6.29
2022-11-21T16:45:44.090Z,6.25
2022-11-21T16:48:13.748Z,6.20
2022-11-21T16:50:43.336Z,6.28
2022-11-21T16:53:13.122Z,6.27
2022-11-21T16:55:42.685Z,6.22
2022-11-21T16:58:15.028Z,6.21
2022-11-21T17:00:44.641Z,6.19
2022-11-21T17:03:14.245Z,6.28
2022-11-21T17:05:43.828Z,6.09
2022-11-21T17:08:13.520Z,6.10
2022-11-21T17:10:43.032Z,6.01
2022-11-21T17:13:15.214Z,6.05
2022-11-21T17:15:45.055Z,6.19
2022-11-21T17:18:14.715Z,6.03
2022-11-21T17:20:44.475Z,6.12
2022-11-21T17:23:14.102Z,6.01
2022-11-21T17:25:43.801Z,6.03
2022-11-21T17:28:15.943Z,6.04
2022-11-21T17:30:45.493Z,6.09
2022-11-21T17:33:15.093Z,6.04
2022-11-21T17:35:44.693Z,5.99
2022-11-21T17:38:14.421Z,5.97
2022-11-21T17:40:44.135Z,5.97
2022-11-21T17:43:16.314Z,6.05
2022-11-21T17:45:47.047Z,6.02
2022-11-21T17:48:16.634Z,6.05
2022-11-21T17:50:46.234Z,6.03
2022-11-21T17:53:15.797Z,5.99
2022-11-21T17:55:45.347Z,5.97
2022-11-21T17:58:17.535Z,5.93
2022-11-21T18:00:47.101Z,5.87
2022-11-21T18:03:16.665Z,5.90
2022-11-21T18:05:51.543Z,5.88
2022-11-21T18:08:21.445Z,5.81
2022-11-21T18:10:54.853Z,5.82
2022-11-21T18:13:27.123Z,5.84
2022-11-21T18:15:57.007Z,5.86
2022-11-21T18:18:26.589Z,5.90
2022-11-21T18:20:56.263Z,6.00
2022-11-21T18:23:26.199Z,5.90
2022-11-21T18:25:55.827Z,5.89
2022-11-21T18:28:27.990Z,5.92
2022-11-21T18:31:06.134Z,5.93
2022-11-21T18:33:36.075Z,5.87
2022-11-21T18:36:06.906Z,5.85
2022-11-21T18:38:48.784Z,5.87
2022-11-21T18:41:21.260Z,5.79
2022-11-21T18:43:56.581Z,5.88
2022-11-21T18:46:27.038Z,5.86
2022-11-21T18:49:12.712Z,5.79
2022-11-21T18:51:42.321Z,5.81
2022-11-21T18:54:13.121Z,5.80
2022-11-21T18:56:42.890Z,5.85
2022-11-21T18:59:15.095Z,5.86
2022-11-21T19:01:44.948Z,5.89
2022-11-21T19:04:14.618Z,5.86
2022-11-21T19:06:44.302Z,5.94
2022-11-21T19:09:15.161Z,5.85
2022-11-21T19:11:44.881Z,5.81
2022-11-21T19:14:17.050Z,5.80
2022-11-21T19:16:46.667Z,5.87
2022-11-21T19:19:34.673Z,5.77
2022-11-21T19:22:06.326Z,5.86
2022-11-21T19:24:36.173Z,5.75
2022-11-21T19:27:05.852Z,5.76
2022-11-21T19:29:38.164Z,5.80
2022-11-21T19:32:08.072Z,5.76
2022-11-21T19:34:37.698Z,5.75
2022-11-21T19:37:07.254Z,5.76
2022-11-21T19:39:36.896Z,5.85
2022-11-21T19:42:06.617Z,5.83
2022-11-21T19:44:38.831Z,5.78
2022-11-21T19:47:08.440Z,5.75
2022-11-21T19:49:38.057Z,5.77
2022-11-21T19:52:07.919Z,5.82
2022-11-21T19:54:37.700Z,5.77
2022-11-21T19:57:13.600Z,5.81
2022-11-21T19:59:47.000Z,5.83
2022-11-21T20:02:21.757Z,5.76
2022-11-21T20:04:51.469Z,5.84
2022-11-21T20:07:21.180Z,5.88
2022-11-21T20:09:50.893Z,5.89
2022-11-21T20:12:20.694Z,5.88
2022-11-21T20:14:53.748Z,5.90
2022-11-21T20:17:23.660Z,5.89
2022-11-21T20:19:53.384Z,5.88
2022-11-21T20:22:23.283Z,5.92
2022-11-21T20:24:53.007Z,5.92
2022-11-21T20:27:22.716Z,5.92
2022-11-21T20:29:54.962Z,5.92
2022-11-21T20:32:26.562Z,5.87
2022-11-21T20:34:56.135Z,5.96
2022-11-21T20:37:25.683Z,5.95
2022-11-21T20:39:55.417Z,5.95
2022-11-21T20:42:25.118Z,5.99
2022-11-21T20:45:54.464Z,5.96
2022-11-21T20:47:46.846Z,5.89
2022-11-21T20:50:38.543Z,5.94
2022-11-21T20:53:50.725Z,5.94
2022-11-21T20:56:01.203Z,5.94
2022-11-21T20:58:35.382Z,5.91
2022-11-21T21:01:08.501Z,6.00
2022-11-21T21:03:39.242Z,5.95
2022-11-21T21:06:11.178Z,5.93
2022-11-21T21:08:41.551Z,5.90
2022-11-21T21:11:36.891Z,5.96
2022-11-21T21:14:04.013Z,5.92
2022-11-21T21:16:37.001Z,5.93
2022-11-21T21:19:06.607Z,5.98
2022-11-21T21:21:36.109Z,6.00
2022-11-21T21:24:07.697Z,5.88
2022-11-21T21:26:42.576Z,5.88
2022-11-21T21:29:13.800Z,5.87
2022-11-21T21:31:51.155Z,5.97
2022-11-21T21:34:22.218Z,5.97
2022-11-21T21:36:51.878Z,5.91
2022-11-21T21:39:21.601Z,5.95
2022-11-21T21:41:51.223Z,5.94
2022-11-21T21:44:21.021Z,5.97
2022-11-21T21:46:53.418Z,5.96
2022-11-21T21:49:24.134Z,5.98
2022-11-21T21:51:53.851Z,5.98
2022-11-21T21:54:24.098Z,6.03
2022-11-21T21:56:53.680Z,5.99
2022-11-21T21:59:23.341Z,6.02
2022-11-21T22:01:55.844Z,5.92
2022-11-21T22:04:25.959Z,5.89
2022-11-21T22:06:55.868Z,5.85
2022-11-21T22:09:25.413Z,5.86
2022-11-21T22:11:55.000Z,5.89
2022-11-21T22:14:24.581Z,5.87
2022-11-21T22:16:56.776Z,5.95
2022-11-21T22:19:26.578Z,5.97
2022-11-21T22:21:56.348Z,5.95
2022-11-21T22:24:27.128Z,5.99
2022-11-21T22:26:57.215Z,5.94
2022-11-21T22:29:26.893Z,5.92
2022-11-21T22:31:59.208Z,5.93
2022-11-21T22:34:30.009Z,5.90
2022-11-21T22:36:59.898Z,5.93
2022-11-21T22:39:29.491Z,5.95
2022-11-21T22:42:00.020Z,5.89
2022-11-21T22:44:30.212Z,5.87
2022-11-21T22:47:02.732Z,5.88
2022-11-21T22:49:32.281Z,5.90
2022-11-21T22:52:01.857Z,5.84
2022-11-21T22:54:31.635Z,5.88
2022-11-21T22:57:01.407Z,5.87
2022-11-21T22:59:31.153Z,5.89
2022-11-21T23:02:03.521Z,5.88
2022-11-21T23:04:33.485Z,5.94
2022-11-21T23:07:03.230Z,5.92
2022-11-21T23:09:32.938Z,5.92
2022-11-21T23:12:02.547Z,5.93
2022-11-21T23:14:34.893Z,5.92
2022-11-21T23:17:07.099Z,5.92
2022-11-21T23:19:36.659Z,5.91
2022-11-21T23:22:06.504Z,5.92
2022-11-21T23:24:36.099Z,5.86
2022-11-21T23:27:06.201Z,5.82
2022-11-21T23:29:36.142Z,5.81
2022-11-21T23:32:08.867Z,5.76
2022-11-21T23:34:38.512Z,5.79
2022-11-21T23:37:09.003Z,5.82
2022-11-21T23:39:38.755Z,5.78
2022-11-21T23:42:08.458Z,5.80
2022-11-21T23:44:38.047Z,5.79
2022-11-21T23:47:12.695Z,5.74
2022-11-21T23:49:46.095Z,5.70
2022-11-21T23:52:19.918Z,5.62
2022-11-21T23:54:51.694Z,5.63
2022-11-21T23:57:21.678Z,5.64
2022-11-21T23:59:53.045Z,5.58
